Burtonfield Tanna, Vanuatu
Current Conditions -  °F | °C
As of 2:00 PM on Wednesday 22 Oct 2014 (Local Time) from NVVV Reporting Station
Broken Clouds Broken Clouds  
Wind Chill: 79°   Ceiling: 4000
Heat Index: 81°   Visibility: 6mi
Dew Point: 68°   Wind: 10mph
Humidity: 69%   Direction: 130°SE
Pressure: 29.88"   Gusts: NA
Location:  19.53°S, 169.25°E
Report Text: NVVV 220300Z 13009KT 9999 SCT020 BKN040 26/20 Q1012 RMK NIL
Loading
Personal Weather Stations






























Interactive Weather Map
Tropical Storm Tracking
New forecast layout! Learn more

10-Day Weather Forecast

Advertisements
Track Severe Weather on mobile